RAMO2: Caney River, Ramona, OK

                                SHEF ID:       RAMO2     Caney River near Ramona, OK
STATION TYPE:
Regulating: Stage = 26.00, Flow = 15426

PRECIP STAGE STAGE(2) RIV-FLOW VOLTAGE BAT-LOAD
in ft ft cfs volt volt
Ccp-Rev Ccp-Rev Ccp-Rev Ccp-Rev Ccp-Rev Ccp-Rev
(America/Chicago)
04/28 00:00 0.00 6.28 99999.00 1954 12.90 ----
04/28 01:00 0.00 6.32 99999.00 1977 12.90 ----
04/28 02:00 0.00 6.38 99999.00 2012 12.90 ----
04/28 03:00 0.00 6.39 99999.00 2017 12.80 ----
04/28 04:00 0.00 6.40 99999.00 2023 12.80 ----
04/28 05:00 0.00 6.42 99999.00 2035 12.80 ----
04/28 06:00 0.00 6.42 99999.00 2035 12.80 ----
04/28 07:00 0.00 6.43 99999.00 2040 12.70 ----
04/28 08:00 0.00 6.47 99999.00 2064 12.80 ----
04/28 09:00 0.00 6.51 99999.00 2087 13.40 ----
04/28 10:00 0.00 6.59 99999.00 2133 13.50 ----
04/28 11:00 0.00 6.64 99999.00 2162 13.50 ----
04/28 12:00 0.00 6.73 99999.00 2214 13.50 ----
04/28 13:00 0.00 6.87 99999.00 2296 13.60 ----
04/28 14:00 0.00 ---- 99999.00 ---- ---- ----
04/28 15:00 0.00 7.06 99999.00 2406 13.50 ----
04/28 16:00 0.00 7.18 99999.00 2476 13.60 ----
04/28 17:00 0.00 7.27 99999.00 2528 13.60 ----
04/28 18:00 0.00 7.40 99999.00 2604 13.40 ----
04/28 19:00 0.00 7.47 99999.00 2645 13.10 ----
04/28 20:00 0.00 7.59 99999.00 2715 13.00 ----
04/28 21:00 0.00 7.64 99999.00 2745 12.90 ----
04/28 22:00 0.00 7.75 99999.00 2809 12.90 ----
04/28 23:00 0.00 7.83 99999.00 2856 12.80 ----
Data processed at Wed 29Apr2026 04:01 GMT

NOTICE: If you are parsing this page

Please convert to using our Data API. Starting early 2026 we will be migrating to: https://water.usace.army.mil with modern pages rendered in JavaScript. When this migration completes you will no longer be able to scrape this page! CWMSDataAPI (CDA)

Timeseries IDs (TSIDs)

TSIDs used from left to right in the data table
RAMO.Precip-Inc.Total.1Hour.1Hour.Ccp-Rev
RAMO.Stage.Inst.1Hour.0.Ccp-Rev
RAMO.Stage-Alt.Inst.1Hour.0.Ccp-Rev
RAMO.Flow.Inst.1Hour.0.Ccp-Rev
RAMO.Volt-Battery.Inst.1Hour.0.Ccp-Rev
RAMO.Volt-Battery Load.Inst.1Hour.0.Ccp-Rev

                            

All information presented herein is the property of the government of the United States of America and may be revised or deleted at any time without prior notice. Dissemination of this information without the expressed written consent of the Public Affairs Office, Tulsa District U.S. Army Corps of Engineers is strictly prohibited. These data are gathered electronically and, as presented, have NOT undergone any form of quality control. These data are NOT guaranteed to be valid or correct.